Punta Gorda, FL (33927)

7:43 PM EDT on July 25, 2017 (GMT -0400)
Riverwood | | Change Station

Elev 13 ft 26.99 °N, 82.23 °W | Updated 6 minutes ago

Partly Cloudy
Partly Cloudy
89.2 °F
Feels Like 104 °F
N
1.0
Wind Variable Wind from North
Gusts 2.0 mph

Today
High -- | Low -- °F
--% Chance of Precip.
Yesterday
High -- | Low -- °F
Precip. -- in
Pressure 30.09 in
Visibility 10.0 miles
Clouds Few 4500 ft
Heat Index 104 °F
Dew Point 79 °F
Humidity 71%
Rainfall 0.00 in
Snow Depth Not available.
6:49 AM 8:20 PM
Waxing Crescent, 9% visible
SPECI KPGD 252314Z 31006KT 10SM VCTS FEW045 32/24 A3009 RMK AO2 LTG DSNT N AND NE T03170239
Pressure 30.09 in
Visibility 10.0 miles
Clouds Few 4500 ft
Heat Index 104 °F
Dew Point 79 °F
Humidity 71%
Rainfall 0.00 in
Snow Depth Not available.
6:49 AM 8:20 PM
Waxing Crescent, 9% visible
SPECI KPGD 252314Z 31006KT 10SM VCTS FEW045 32/24 A3009 RMK AO2 LTG DSNT N AND NE T03170239

Get Severe Weather Alerts

Thanks for signing up!

Be on the lookout for a verification email in your inbox.

You'll start receiving the daily forecast at 6 AM.

×

10-Day Weather Forecast

Almanac

Astronomy

Jul. 25, 2017 Rise Set
Actual Time
Civil Twilight
Nautical Twilight
Astronomical Twilight
Moon
Length of Visible Light
Length of Day
Tomorrow will be .
, % of the Moon is Illuminated

Today's Extremes

State Highs State Lows

Community

WunderPhotos

Category 6

Welcome to Category 6. This is the collective home for Weather Underground's featured writeups by Dr. Jeff Masters (right), Bob Henson (left), Chris Burt, and other regular contributors.

Nearby

Air Quality

  Air Quality AQ Index Pollutant
Not available.

Snow Depth

Station Depth Elevation

Earthquake Activity

City Distance Mag. Time & Date
Minimum magnitude displayed is 2.5.

Coastal Water Temperatures

Place Temperature

Stations

Nearby Weather Stations

Station Location Temp. Windchill Dew Point Humidity Wind Precip. Elev Updated Type
                   

Watches & Warnings

There are currently no watches in effect.